createdAt,value
2023-11-14T00:03:09.032Z,59.01
2023-11-14T00:08:13.417Z,58.88
2023-11-14T00:13:15.481Z,58.96
2023-11-14T00:18:17.346Z,57.73
2023-11-14T00:23:19.407Z,59.40
2023-11-14T00:28:21.541Z,60.06
2023-11-14T00:33:23.628Z,60.57
2023-11-14T00:38:25.465Z,58.25
2023-11-14T00:43:27.526Z,57.90
2023-11-14T00:48:29.962Z,58.23
2023-11-14T00:53:32.101Z,59.14
2023-11-14T00:58:36.208Z,60.45
2023-11-14T01:03:38.245Z,59.95
2023-11-14T01:08:40.234Z,58.84
2023-11-14T01:13:42.203Z,57.23
2023-11-14T01:18:44.529Z,56.79
2023-11-14T01:23:46.889Z,59.45
2023-11-14T01:28:48.926Z,59.96
2023-11-14T01:33:50.931Z,60.07
2023-11-14T01:38:55.548Z,59.46
2023-11-14T01:43:57.375Z,59.65
2023-11-14T01:49:00.464Z,59.56
2023-11-14T01:54:02.958Z,59.65
2023-11-14T01:59:05.664Z,59.44
2023-11-14T02:04:14.090Z,59.93
2023-11-14T02:09:15.929Z,59.74
2023-11-14T02:14:18.046Z,60.51
2023-11-14T02:19:20.413Z,60.42
2023-11-14T02:24:22.619Z,60.75
2023-11-14T02:29:27.378Z,60.54
2023-11-14T02:34:31.869Z,60.89
2023-11-14T02:39:34.241Z,59.76
2023-11-14T02:44:38.555Z,60.08
2023-11-14T02:50:00.042Z,59.43
2023-11-14T02:55:02.000Z,59.95
2023-11-14T03:00:05.504Z,59.46
2023-11-14T03:05:09.977Z,58.90
2023-11-14T03:10:14.199Z,58.90
2023-11-14T03:15:16.201Z,59.99
2023-11-14T03:20:24.348Z,60.00
2023-11-14T03:25:30.950Z,60.79
2023-11-14T03:30:34.333Z,61.08
2023-11-14T03:35:36.293Z,61.05
2023-11-14T03:40:38.249Z,60.68
2023-11-14T03:45:40.312Z,60.32
2023-11-14T03:50:42.213Z,61.43
2023-11-14T03:55:44.152Z,62.36
2023-11-14T04:00:46.693Z,62.64
2023-11-14T04:05:48.480Z,62.66
2023-11-14T04:10:50.571Z,61.14
2023-11-14T04:15:54.633Z,62.06
2023-11-14T04:20:56.607Z,62.26
2023-11-14T04:26:00.908Z,62.46
2023-11-14T04:31:02.926Z,62.18
2023-11-14T04:36:05.324Z,62.31
2023-11-14T04:41:09.909Z,63.17
2023-11-14T04:46:11.784Z,63.31
2023-11-14T04:51:13.897Z,62.29
2023-11-14T04:56:18.421Z,62.23
2023-11-14T05:01:22.826Z,60.71
2023-11-14T05:06:25.288Z,59.90
2023-11-14T05:11:27.443Z,61.13
2023-11-14T05:16:29.669Z,60.41
2023-11-14T05:21:31.944Z,61.18
2023-11-14T05:26:33.833Z,60.55
2023-11-14T05:31:36.977Z,60.38
2023-11-14T05:36:39.179Z,60.88
2023-11-14T05:41:43.781Z,60.05
2023-11-14T05:46:45.961Z,60.13
2023-11-14T05:51:48.031Z,60.34
2023-11-14T05:56:50.123Z,60.85
2023-11-14T06:01:54.972Z,60.83
2023-11-14T06:06:57.082Z,61.08
2023-11-14T06:11:59.110Z,61.33
2023-11-14T06:17:01.094Z,60.89
2023-11-14T06:22:03.537Z,60.51
2023-11-14T06:27:05.880Z,59.17
2023-11-14T06:32:08.339Z,59.73
2023-11-14T06:37:12.693Z,59.44
2023-11-14T06:42:17.249Z,60.26
2023-11-14T06:47:19.262Z,61.08
2023-11-14T06:52:21.258Z,60.87
2023-11-14T06:57:23.057Z,59.85
2023-11-14T07:02:25.073Z,60.23
2023-11-14T07:07:27.066Z,60.51
2023-11-14T07:12:31.237Z,60.71
2023-11-14T07:17:36.882Z,60.08
2023-11-14T07:22:42.117Z,59.99
2023-11-14T07:27:44.621Z,59.74
2023-11-14T07:32:48.987Z,59.29
2023-11-14T07:37:51.037Z,59.45
2023-11-14T07:42:53.691Z,59.21
2023-11-14T07:47:55.535Z,59.16
2023-11-14T07:52:59.673Z,59.61
2023-11-14T07:58:01.483Z,59.24
2023-11-14T08:03:04.797Z,59.98
2023-11-14T08:08:09.304Z,59.60
2023-11-14T08:13:11.698Z,59.33
2023-11-14T08:18:14.712Z,59.34
2023-11-14T08:23:19.422Z,59.27
2023-11-14T08:28:23.665Z,59.14
2023-11-14T08:33:25.607Z,59.29
2023-11-14T08:38:28.860Z,58.88
2023-11-14T08:43:33.485Z,58.60
2023-11-14T08:48:35.374Z,58.92
2023-11-14T08:53:37.244Z,58.91
2023-11-14T08:58:39.139Z,58.77
2023-11-14T09:03:45.768Z,58.47
2023-11-14T09:08:49.935Z,58.40
2023-11-14T09:13:58.439Z,58.04
2023-11-14T09:19:00.691Z,59.10
2023-11-14T09:24:04.887Z,58.90
2023-11-14T09:29:06.696Z,58.75
2023-11-14T09:34:09.858Z,59.03
2023-11-14T09:39:24.255Z,59.89
2023-11-14T09:44:29.701Z,59.54
2023-11-14T09:49:32.096Z,59.98
2023-11-14T09:54:35.191Z,59.95
2023-11-14T09:59:43.040Z,60.23
2023-11-14T10:04:47.540Z,60.23
2023-11-14T10:09:49.745Z,60.46
2023-11-14T10:14:51.736Z,60.63
2023-11-14T10:19:57.583Z,61.10
2023-11-14T10:24:59.566Z,60.79
2023-11-14T10:30:01.391Z,60.00
2023-11-14T10:35:18.849Z,60.38
2023-11-14T10:40:20.742Z,60.84
2023-11-14T10:45:22.604Z,60.07
2023-11-14T10:50:28.833Z,59.74
2023-11-14T10:55:30.940Z,60.15
2023-11-14T11:00:35.619Z,60.97
2023-11-14T11:05:39.445Z,60.86
2023-11-14T11:10:44.713Z,60.98
2023-11-14T11:15:48.567Z,61.47
2023-11-14T11:20:51.490Z,61.54
2023-11-14T11:26:13.032Z,61.47
2023-11-14T11:31:24.754Z,60.91
2023-11-14T11:36:26.916Z,61.05
2023-11-14T11:41:36.862Z,60.43
2023-11-14T11:46:46.034Z,59.62
2023-11-14T11:51:49.202Z,59.93
2023-11-14T11:56:55.862Z,59.59
2023-11-14T12:02:03.425Z,58.28
2023-11-14T12:07:05.739Z,59.18
2023-11-14T12:12:10.216Z,59.11
2023-11-14T12:17:12.424Z,58.70
2023-11-14T12:22:14.347Z,59.01
2023-11-14T12:27:18.457Z,59.08
2023-11-14T12:32:25.508Z,59.93
2023-11-14T12:37:28.507Z,59.71
2023-11-14T12:42:30.735Z,59.90
2023-11-14T12:47:34.145Z,59.99
2023-11-14T12:52:42.774Z,59.15
2023-11-14T12:57:47.135Z,59.77
2023-11-14T13:02:49.186Z,59.29
2023-11-14T13:07:51.786Z,58.99
2023-11-14T13:12:53.580Z,59.05
2023-11-14T13:17:55.489Z,59.07
2023-11-14T13:22:58.780Z,59.43
2023-11-14T13:28:04.856Z,58.67
2023-11-14T13:33:06.811Z,59.14
2023-11-14T13:38:16.001Z,58.84
2023-11-14T13:43:18.270Z,56.90
2023-11-14T13:48:21.282Z,57.20
2023-11-14T13:53:28.153Z,57.34
2023-11-14T13:58:32.607Z,57.34
2023-11-14T14:03:34.607Z,56.67
2023-11-14T14:08:37.198Z,58.04
2023-11-14T14:13:42.078Z,58.02
2023-11-14T14:18:46.257Z,57.61
2023-11-14T14:23:48.438Z,57.26
2023-11-14T14:28:50.393Z,57.79
2023-11-14T14:33:52.642Z,57.45
2023-11-14T14:38:54.942Z,56.77
2023-11-14T14:43:59.192Z,56.92
2023-11-14T14:49:01.129Z,56.75
2023-11-14T14:54:04.398Z,57.11
2023-11-14T14:59:06.551Z,56.65
2023-11-14T15:04:08.731Z,56.14
2023-11-14T15:09:12.128Z,56.56
2023-11-14T15:14:14.510Z,56.81
2023-11-14T15:19:16.515Z,56.60
2023-11-14T15:24:20.866Z,56.58
2023-11-14T15:29:23.682Z,56.09
2023-11-14T15:34:27.878Z,57.54
2023-11-14T15:39:33.307Z,56.92
2023-11-14T15:44:36.573Z,56.99
2023-11-14T15:49:38.793Z,57.43
2023-11-14T15:54:40.670Z,57.92
2023-11-14T15:59:43.851Z,58.38
2023-11-14T16:04:45.690Z,58.79
2023-11-14T16:09:47.618Z,58.82
2023-11-14T16:14:50.879Z,58.58
2023-11-14T16:19:55.361Z,58.74
2023-11-14T16:25:02.000Z,57.21
2023-11-14T16:30:05.932Z,58.59
2023-11-14T16:35:10.892Z,58.22
2023-11-14T16:40:16.075Z,57.39
2023-11-14T16:45:18.704Z,58.29
2023-11-14T16:50:21.020Z,59.24
2023-11-14T16:55:23.454Z,59.23
2023-11-14T17:00:29.311Z,59.09
2023-11-14T17:05:38.334Z,59.05
2023-11-14T17:10:45.862Z,59.22
2023-11-14T17:21:44.324Z,59.57
2023-11-14T17:26:49.358Z,58.93
2023-11-14T17:31:53.886Z,58.89
2023-11-14T17:42:11.834Z,59.25
2023-11-14T17:47:15.083Z,59.00
2023-11-14T17:52:18.027Z,59.21
2023-11-14T17:57:20.907Z,59.50
2023-11-14T18:02:23.481Z,58.17
2023-11-14T18:07:25.713Z,56.49
2023-11-14T18:12:28.303Z,56.38
2023-11-14T18:17:30.312Z,56.84
2023-11-14T18:22:34.516Z,57.35
2023-11-14T18:27:36.515Z,57.54
2023-11-14T18:32:39.532Z,57.97
2023-11-14T18:37:41.860Z,58.51
2023-11-14T18:42:46.503Z,59.19
2023-11-14T18:47:48.455Z,59.30
2023-11-14T18:52:53.342Z,59.18
2023-11-14T18:57:55.826Z,59.48
2023-11-14T19:02:57.929Z,58.83
2023-11-14T19:07:59.851Z,58.97
2023-11-14T19:13:02.064Z,58.34
2023-11-14T19:18:04.263Z,58.34
2023-11-14T19:23:40.402Z,58.98
2023-11-14T19:28:29.566Z,59.35
2023-11-14T19:33:31.455Z,59.04
2023-11-14T19:38:34.940Z,58.86
2023-11-14T19:43:41.010Z,59.43
2023-11-14T19:48:43.106Z,60.21
2023-11-14T19:53:45.092Z,60.33
2023-11-14T19:58:47.076Z,59.80
2023-11-14T20:03:49.632Z,59.60
2023-11-14T20:08:51.942Z,59.24
2023-11-14T20:13:53.846Z,59.86
2023-11-14T20:18:55.649Z,59.71
2023-11-14T20:23:57.835Z,59.13
2023-11-14T20:28:59.971Z,59.20
2023-11-14T20:34:01.941Z,58.62
2023-11-14T20:39:04.163Z,59.13
2023-11-14T20:44:07.098Z,59.07
2023-11-14T20:49:09.324Z,58.39
2023-11-14T20:54:11.662Z,58.49
2023-11-14T20:59:14.000Z,57.68
2023-11-14T21:04:16.023Z,57.50
2023-11-14T21:09:19.188Z,57.56
2023-11-14T21:14:24.074Z,57.80
2023-11-14T21:19:25.949Z,57.51
2023-11-14T21:24:32.185Z,57.43
2023-11-14T21:29:34.222Z,57.84
2023-11-14T21:34:36.632Z,57.75
2023-11-14T21:39:38.649Z,56.91
2023-11-14T21:44:40.613Z,56.91
2023-11-14T21:49:43.752Z,56.83
2023-11-14T21:54:46.777Z,57.13
2023-11-14T21:59:50.487Z,56.95
2023-11-14T22:04:54.655Z,56.91
2023-11-14T22:09:56.413Z,56.67
2023-11-14T22:14:59.269Z,56.73
2023-11-14T22:20:03.463Z,56.68
2023-11-14T22:25:09.592Z,57.57
2023-11-14T22:30:14.866Z,56.70
2023-11-14T22:35:16.804Z,56.99
2023-11-14T22:40:19.420Z,56.76
2023-11-14T22:45:24.049Z,56.83
2023-11-14T22:50:26.064Z,57.13
2023-11-14T22:55:27.892Z,57.27
2023-11-14T23:00:45.366Z,57.30
2023-11-14T23:05:50.487Z,57.06
2023-11-14T23:10:52.550Z,56.59
2023-11-14T23:15:55.822Z,56.71
2023-11-14T23:20:57.729Z,57.29
2023-11-14T23:26:00.000Z,57.19
2023-11-14T23:31:04.187Z,57.08
2023-11-14T23:36:06.880Z,56.49
2023-11-14T23:41:11.042Z,57.03
2023-11-14T23:46:17.963Z,56.64
2023-11-14T23:51:22.705Z,57.34
2023-11-14T23:56:24.890Z,56.82
